createdAt,value
2023-03-11T00:00:00.236Z,97821.64
2023-03-11T00:02:30.918Z,97820.79
2023-03-11T00:05:01.629Z,97819.23
2023-03-11T00:07:32.390Z,97819.17
2023-03-11T00:10:03.020Z,97823.10
2023-03-11T00:12:33.674Z,97825.03
2023-03-11T00:15:04.684Z,97821.09
2023-03-11T00:17:33.778Z,97817.54
2023-03-11T00:20:05.363Z,97815.92
2023-03-11T00:22:36.097Z,97814.30
2023-03-11T00:25:10.031Z,97814.00
2023-03-11T00:27:40.898Z,97817.45
2023-03-11T00:30:14.852Z,97817.45
2023-03-11T00:32:47.076Z,97817.05
2023-03-11T00:35:19.610Z,97816.36
2023-03-11T00:37:53.619Z,97815.36
2023-03-11T00:40:27.209Z,97810.12
2023-03-11T00:42:58.162Z,97807.50
2023-03-11T00:45:27.742Z,97804.17
2023-03-11T00:47:58.711Z,97807.80
2023-03-11T00:50:28.892Z,97806.02
2023-03-11T00:53:00.671Z,97800.70
2023-03-11T00:55:33.517Z,97801.85
2023-03-11T00:58:07.037Z,97800.94
2023-03-11T01:00:37.683Z,97796.77
2023-03-11T01:03:08.749Z,97798.38
2023-03-11T01:05:39.675Z,97797.75
2023-03-11T01:08:10.302Z,97796.76
2023-03-11T01:10:40.972Z,97795.59
2023-03-11T01:13:11.613Z,97792.89
2023-03-11T01:15:42.588Z,97793.66
2023-03-11T01:18:11.696Z,97793.05
2023-03-11T01:20:42.381Z,97794.04
2023-03-11T01:23:14.974Z,97795.35
2023-03-11T01:25:45.702Z,97790.72
2023-03-11T01:28:16.402Z,97789.65
2023-03-11T01:30:47.065Z,97793.58
2023-03-11T01:33:19.694Z,97791.81
2023-03-11T01:35:50.430Z,97792.89
2023-03-11T01:38:21.221Z,97792.34
2023-03-11T01:40:53.006Z,97792.66
2023-03-11T01:43:47.655Z,97791.88
2023-03-11T01:46:21.644Z,97791.41
2023-03-11T01:48:53.791Z,97791.80
2023-03-11T01:51:28.455Z,97792.33
2023-03-11T01:54:03.879Z,97792.41
2023-03-11T01:56:35.575Z,97790.71
2023-03-11T01:59:08.838Z,97790.16
2023-03-11T02:01:43.934Z,97793.70
2023-03-11T02:04:15.481Z,97795.24
2023-03-11T02:06:46.339Z,97795.23
2023-03-11T02:09:17.081Z,97797.45
2023-03-11T02:11:47.788Z,97796.68
2023-03-11T02:14:19.437Z,97797.98
2023-03-11T02:16:50.142Z,97800.82
2023-03-11T02:19:32.154Z,97805.52
2023-03-11T02:22:03.246Z,97801.08
2023-03-11T02:24:42.538Z,97802.14
2023-03-11T02:27:16.531Z,97805.05
2023-03-11T02:29:49.680Z,97810.89
2023-03-11T02:32:21.294Z,97816.34
2023-03-11T02:34:51.973Z,97816.70
2023-03-11T02:37:22.641Z,97821.01
2023-03-11T02:39:54.651Z,97826.62
2023-03-11T02:42:28.822Z,97831.61
2023-03-11T02:45:03.752Z,97835.14
2023-03-11T02:47:37.647Z,97847.98
2023-03-11T02:50:18.022Z,97856.42
2023-03-11T02:52:49.877Z,97865.39
2023-03-11T02:55:21.130Z,97873.27
2023-03-11T02:57:50.316Z,97879.69
2023-03-11T03:00:23.192Z,97888.25
2023-03-11T03:02:53.916Z,97891.89
2023-03-11T03:05:24.780Z,97900.92
2023-03-11T03:07:55.841Z,97904.92
2023-03-11T03:10:31.973Z,97915.60
2023-03-11T03:13:02.702Z,97918.82
2023-03-11T03:15:33.498Z,97925.40
2023-03-11T03:18:04.265Z,97928.79
2023-03-11T03:20:35.539Z,97934.79
2023-03-11T03:23:06.247Z,97940.54
2023-03-11T03:25:36.925Z,97943.23
2023-03-11T03:28:07.950Z,97947.77
2023-03-11T03:30:37.224Z,97950.14
2023-03-11T03:33:08.281Z,97954.72
2023-03-11T03:35:40.423Z,97956.95
2023-03-11T03:38:11.436Z,97961.71
2023-03-11T03:40:47.864Z,97968.58
2023-03-11T03:43:18.544Z,97974.73
2023-03-11T03:45:56.956Z,97980.39
2023-03-11T03:48:28.237Z,97991.17
2023-03-11T03:51:05.096Z,98003.16
2023-03-11T03:53:36.987Z,98004.55
2023-03-11T03:56:10.866Z,98012.86
2023-03-11T03:58:41.581Z,98021.95
2023-03-11T04:01:12.885Z,98030.23
2023-03-11T04:03:44.043Z,98038.34
2023-03-11T04:06:19.440Z,98045.30
2023-03-11T04:08:50.647Z,98055.94
2023-03-11T04:11:21.784Z,98060.98
2023-03-11T04:13:50.912Z,98067.27
2023-03-11T04:16:23.841Z,98071.55
2023-03-11T04:18:54.604Z,98077.91
2023-03-11T04:21:25.327Z,98086.31
2023-03-11T04:23:55.948Z,98091.98
2023-03-11T04:26:27.536Z,98095.34
2023-03-11T04:28:58.209Z,98096.12
2023-03-11T04:31:29.115Z,98103.46
2023-03-11T04:33:59.752Z,98104.00
2023-03-11T04:36:30.493Z,98116.03
2023-03-11T04:39:01.123Z,98116.86
2023-03-11T04:41:31.779Z,98124.79
2023-03-11T04:44:02.389Z,98136.81
2023-03-11T04:46:33.294Z,98140.77
2023-03-11T04:49:03.958Z,98149.60
2023-03-11T04:51:34.736Z,98154.80
2023-03-11T04:54:05.740Z,98164.35
2023-03-11T04:56:34.908Z,98174.61
2023-03-11T04:59:05.548Z,98184.24
2023-03-11T05:01:36.304Z,98194.32
2023-03-11T05:04:07.170Z,98199.39
2023-03-11T05:06:37.837Z,98206.08
2023-03-11T05:09:08.506Z,98211.06
2023-03-11T05:11:39.193Z,98219.26
2023-03-11T05:14:09.782Z,98224.63
2023-03-11T05:16:40.444Z,98238.77
2023-03-11T05:19:11.116Z,98249.47
2023-03-11T05:21:41.825Z,98261.08
2023-03-11T05:24:12.843Z,98267.86
2023-03-11T05:26:43.681Z,98271.98
2023-03-11T05:29:14.343Z,98274.84
2023-03-11T05:31:45.016Z,98287.41
2023-03-11T05:34:16.030Z,98296.71
2023-03-11T05:36:46.809Z,98304.48
2023-03-11T05:39:17.425Z,98311.80
2023-03-11T05:41:48.711Z,98324.02
2023-03-11T05:44:19.321Z,98330.63
2023-03-11T05:46:50.176Z,98343.45
2023-03-11T05:49:20.889Z,98350.19
2023-03-11T05:51:52.525Z,98362.45
2023-03-11T05:54:23.160Z,98374.58
2023-03-11T05:56:53.823Z,98382.85
2023-03-11T05:59:24.936Z,98390.13
2023-03-11T06:01:55.684Z,98400.60
2023-03-11T06:04:26.526Z,98417.46
2023-03-11T06:06:57.287Z,98423.51
2023-03-11T06:09:28.524Z,98434.52
2023-03-11T06:11:59.321Z,98452.59
2023-03-11T06:14:30.047Z,98464.19
2023-03-11T06:17:00.904Z,98475.40
2023-03-11T06:19:31.572Z,98480.64
2023-03-11T06:22:03.012Z,98492.23
2023-03-11T06:24:33.690Z,98498.92
2023-03-11T06:27:04.662Z,98506.66
2023-03-11T06:29:35.341Z,98514.63
2023-03-11T06:32:06.685Z,98526.40
2023-03-11T06:34:37.314Z,98534.17
2023-03-11T06:37:08.008Z,98550.77
2023-03-11T06:39:38.649Z,98562.05
2023-03-11T06:42:12.887Z,98570.14
2023-03-11T06:44:43.537Z,98578.37
2023-03-11T06:47:14.264Z,98591.60
2023-03-11T06:49:44.943Z,98598.88
2023-03-11T06:52:15.708Z,98609.27
2023-03-11T06:54:46.762Z,98615.61
2023-03-11T06:57:16.186Z,98627.55
2023-03-11T06:59:46.828Z,98638.61
2023-03-11T07:02:17.699Z,98652.18
2023-03-11T07:04:50.781Z,98657.11
2023-03-11T07:07:21.762Z,98669.10
2023-03-11T07:09:54.525Z,98680.69
2023-03-11T07:12:25.440Z,98689.06
2023-03-11T07:14:58.815Z,98702.86
2023-03-11T07:17:29.636Z,98713.54
2023-03-11T07:20:00.621Z,98724.66
2023-03-11T07:22:30.079Z,98729.00
2023-03-11T07:25:00.808Z,98733.62
2023-03-11T07:27:32.006Z,98741.58
2023-03-11T07:30:04.331Z,98751.21
2023-03-11T07:32:35.046Z,98755.48
2023-03-11T07:35:08.661Z,98768.64
2023-03-11T07:37:39.455Z,98779.99
2023-03-11T07:40:13.162Z,98787.45
2023-03-11T07:42:43.830Z,98797.81
2023-03-11T07:45:15.325Z,98807.80
2023-03-11T07:47:46.263Z,98818.83
2023-03-11T07:50:19.545Z,98825.88
2023-03-11T07:52:50.319Z,98835.98
2023-03-11T07:55:21.565Z,98841.97
2023-03-11T07:57:52.389Z,98842.08
2023-03-11T08:00:23.607Z,98854.27
2023-03-11T08:02:54.275Z,98863.42
2023-03-11T08:05:25.234Z,98876.64
2023-03-11T08:07:56.029Z,98882.77
2023-03-11T08:10:26.911Z,98888.65
2023-03-11T08:12:57.690Z,98895.27
2023-03-11T08:15:28.334Z,98901.41
2023-03-11T08:17:59.268Z,98913.73
2023-03-11T08:20:30.014Z,98912.55
2023-03-11T08:23:00.853Z,98920.00
2023-03-11T08:25:31.822Z,98935.03
2023-03-11T08:28:01.154Z,98938.45
2023-03-11T08:30:33.386Z,98947.88
2023-03-11T08:33:08.041Z,98944.36
2023-03-11T08:35:39.006Z,98959.30
2023-03-11T08:38:10.169Z,98961.33
2023-03-11T08:40:41.117Z,98969.02
2023-03-11T08:43:14.593Z,98977.74
2023-03-11T08:45:45.658Z,98986.45
2023-03-11T08:48:16.342Z,98992.38
2023-03-11T08:50:53.955Z,98999.23
2023-03-11T08:53:25.784Z,99014.10
2023-03-11T08:55:56.658Z,99017.98
2023-03-11T08:58:27.492Z,99025.88
2023-03-11T09:00:58.180Z,99035.02
2023-03-11T09:03:30.715Z,99036.52
2023-03-11T09:06:03.154Z,99045.13
2023-03-11T09:08:34.730Z,99051.49
2023-03-11T09:11:04.109Z,99050.37
2023-03-11T09:13:35.370Z,99065.10
2023-03-11T09:16:07.464Z,99071.49
2023-03-11T09:18:38.191Z,99080.10
2023-03-11T09:21:09.678Z,99085.58
2023-03-11T09:23:42.884Z,99095.81
2023-03-11T09:26:15.150Z,99102.88
2023-03-11T09:28:44.402Z,99110.31
2023-03-11T09:31:15.268Z,99117.52
2023-03-11T09:33:46.851Z,99125.25
2023-03-11T09:36:19.322Z,99130.85
2023-03-11T09:38:50.501Z,99138.56
2023-03-11T09:41:33.903Z,99144.83
2023-03-11T09:44:16.149Z,99151.70
2023-03-11T09:47:34.422Z,99155.71
2023-03-11T09:50:33.705Z,99160.27
2023-03-11T09:53:17.888Z,99165.52
2023-03-11T09:55:52.264Z,99169.55
2023-03-11T09:58:31.828Z,99175.22
2023-03-11T10:01:03.409Z,99184.73
2023-03-11T10:03:39.356Z,99192.27
2023-03-11T10:06:22.081Z,99195.68
2023-03-11T10:09:02.835Z,99200.82
2023-03-11T10:11:53.306Z,99199.02
2023-03-11T10:14:37.744Z,99203.21
2023-03-11T10:17:19.613Z,99209.30
2023-03-11T10:19:59.609Z,99212.55
2023-03-11T10:22:40.436Z,99216.37
2023-03-11T10:25:16.667Z,99227.08
2023-03-11T10:27:51.984Z,99234.05
2023-03-11T10:30:29.610Z,99236.60
2023-03-11T10:33:06.397Z,99236.73
2023-03-11T10:35:40.884Z,99242.88
2023-03-11T10:38:19.032Z,99247.20
2023-03-11T10:40:53.726Z,99252.47
2023-03-11T10:43:29.126Z,99257.54
2023-03-11T10:46:00.286Z,99267.38
2023-03-11T10:48:30.996Z,99275.85
2023-03-11T10:51:11.118Z,99285.60
2023-03-11T10:53:49.777Z,99285.54
2023-03-11T10:56:32.715Z,99287.84
2023-03-11T10:59:05.874Z,99295.11
2023-03-11T11:01:36.590Z,99302.21
2023-03-11T11:04:28.198Z,99304.89
2023-03-11T11:07:19.091Z,99318.33
2023-03-11T11:10:13.619Z,99318.95
2023-03-11T11:12:54.776Z,99320.30
2023-03-11T11:15:28.762Z,99328.86
2023-03-11T11:18:02.238Z,99336.36
2023-03-11T11:20:34.029Z,99344.41
2023-03-11T11:23:05.671Z,99345.46
2023-03-11T11:25:38.173Z,99351.39
2023-03-11T11:28:18.261Z,99355.41
2023-03-11T11:30:57.176Z,99357.92
2023-03-11T11:33:30.976Z,99361.11
2023-03-11T11:36:04.819Z,99366.78
2023-03-11T11:38:35.985Z,99367.98
2023-03-11T11:41:05.599Z,99371.93
2023-03-11T11:43:46.389Z,99374.77
2023-03-11T11:46:22.603Z,99382.13
2023-03-11T11:49:02.683Z,99389.89
2023-03-11T11:51:36.566Z,99389.10
2023-03-11T11:54:16.692Z,99391.09
2023-03-11T11:56:47.604Z,99403.95
2023-03-11T11:59:20.961Z,99405.05
2023-03-11T12:02:04.395Z,99404.53
2023-03-11T12:04:46.738Z,99409.94
2023-03-11T12:07:39.349Z,99413.21
2023-03-11T12:10:24.153Z,99415.60
2023-03-11T12:13:18.266Z,99414.88
2023-03-11T12:15:53.834Z,99419.88
2023-03-11T12:18:31.455Z,99423.14
2023-03-11T12:21:09.961Z,99425.66
2023-03-11T12:23:55.038Z,99422.92
2023-03-11T12:26:28.091Z,99437.94
2023-03-11T12:29:02.995Z,99432.34
2023-03-11T12:31:38.223Z,99432.71
2023-03-11T12:34:13.477Z,99435.17
2023-03-11T12:36:46.288Z,99433.80
2023-03-11T12:39:24.605Z,99437.81
2023-03-11T12:42:21.599Z,99438.44
2023-03-11T12:44:52.612Z,99441.95
2023-03-11T12:47:23.100Z,99443.84
2023-03-11T12:49:55.607Z,99448.92
2023-03-11T12:52:28.463Z,99450.59
2023-03-11T12:55:34.831Z,99458.18
2023-03-11T12:58:32.286Z,99462.08
2023-03-11T13:01:26.190Z,99473.61
2023-03-11T13:04:04.737Z,99479.44
2023-03-11T13:06:58.558Z,99486.38
2023-03-11T13:09:31.435Z,99494.40
2023-03-11T13:12:02.423Z,99494.05
2023-03-11T13:14:34.039Z,99497.74
2023-03-11T13:17:26.803Z,99498.60
2023-03-11T13:19:59.370Z,99493.52
2023-03-11T13:23:13.591Z,99505.36
2023-03-11T13:26:02.608Z,99511.06
2023-03-11T13:28:52.734Z,99515.36
2023-03-11T13:31:37.112Z,99517.11
2023-03-11T13:34:16.170Z,99522.55
2023-03-11T13:37:05.119Z,99520.80
2023-03-11T13:39:53.272Z,99530.66
2023-03-11T13:42:30.182Z,99545.42
2023-03-11T13:45:02.025Z,99554.19
2023-03-11T13:47:35.472Z,99553.95
2023-03-11T13:50:17.568Z,99558.34
2023-03-11T13:52:52.452Z,99568.98
2023-03-11T13:55:28.415Z,99575.88
2023-03-11T13:57:59.308Z,99577.95
2023-03-11T14:00:38.400Z,99579.70
2023-03-11T14:03:14.841Z,99580.55
2023-03-11T14:05:48.060Z,99587.98
2023-03-11T14:08:23.939Z,99596.77
2023-03-11T14:10:56.603Z,99597.30
2023-03-11T14:13:28.661Z,99605.52
2023-03-11T14:16:07.885Z,99607.73
2023-03-11T14:18:41.114Z,99612.95
2023-03-11T14:21:16.491Z,99617.90
2023-03-11T14:23:49.782Z,99619.75
2023-03-11T14:26:23.089Z,99626.27
2023-03-11T14:28:55.081Z,99629.84
2023-03-11T14:31:31.890Z,99631.41
2023-03-11T14:34:04.098Z,99636.44
2023-03-11T14:36:43.704Z,99637.76
2023-03-11T14:39:29.399Z,99643.36
2023-03-11T14:42:06.808Z,99646.42
2023-03-11T14:44:42.040Z,99648.51
2023-03-11T14:47:18.834Z,99646.92
2023-03-11T14:49:51.810Z,99652.27
2023-03-11T14:52:31.231Z,99653.05
2023-03-11T14:55:05.646Z,99662.39
2023-03-11T14:57:40.404Z,99660.86
2023-03-11T15:00:18.037Z,99664.92
2023-03-11T15:02:59.743Z,99660.77
2023-03-11T15:05:39.437Z,99672.52
2023-03-11T15:08:11.126Z,99669.29
2023-03-11T15:11:02.964Z,99672.10
2023-03-11T15:13:34.383Z,99677.31
2023-03-11T15:16:04.741Z,99674.06
2023-03-11T15:18:38.270Z,99677.51
2023-03-11T15:21:15.772Z,99680.16
2023-03-11T15:23:51.388Z,99676.48
2023-03-11T15:26:25.462Z,99675.52
2023-03-11T15:28:58.772Z,99675.79
2023-03-11T15:31:34.795Z,99674.22
2023-03-11T15:34:25.544Z,99676.41
2023-03-11T15:37:04.873Z,99676.12
2023-03-11T15:39:47.156Z,99680.35
2023-03-11T15:42:20.682Z,99680.98
2023-03-11T15:45:03.035Z,99683.38
2023-03-11T15:47:33.661Z,99691.88
2023-03-11T15:50:43.053Z,99694.59
2023-03-11T15:53:21.472Z,99700.23
2023-03-11T15:55:53.087Z,99702.38
2023-03-11T15:58:23.895Z,99703.88
2023-03-11T16:01:00.066Z,99711.70
2023-03-11T16:03:31.549Z,99713.87
2023-03-11T16:06:02.434Z,99720.78
2023-03-11T16:08:33.168Z,99722.67
2023-03-11T16:11:04.157Z,99728.48
2023-03-11T16:13:34.793Z,99734.42
2023-03-11T16:16:06.230Z,99740.61
2023-03-11T16:18:36.980Z,99746.94
2023-03-11T16:21:13.612Z,99749.48
2023-03-11T16:23:51.547Z,99750.08
2023-03-11T16:26:23.807Z,99750.80
2023-03-11T16:28:54.537Z,99751.89
2023-03-11T16:31:25.240Z,99754.81
2023-03-11T16:33:55.880Z,99758.83
2023-03-11T16:36:26.716Z,99764.28
2023-03-11T16:38:57.373Z,99767.02
2023-03-11T16:41:28.193Z,99773.55
2023-03-11T16:43:58.752Z,99775.08
2023-03-11T16:46:29.453Z,99782.52
2023-03-11T16:49:00.173Z,99787.05
2023-03-11T16:51:30.886Z,99794.30
2023-03-11T16:54:01.707Z,99804.70
2023-03-11T16:56:32.420Z,99810.19
2023-03-11T16:59:03.085Z,99813.19
2023-03-11T17:01:33.839Z,99817.84
2023-03-11T17:04:04.840Z,99820.42
2023-03-11T17:06:35.525Z,99824.51
2023-03-11T17:09:06.152Z,99828.35
2023-03-11T17:11:37.228Z,99832.53
2023-03-11T17:14:15.906Z,99830.39
2023-03-11T17:16:47.271Z,99835.89
2023-03-11T17:19:17.833Z,99838.54
2023-03-11T17:21:48.528Z,99841.42
2023-03-11T17:24:19.381Z,99846.05
2023-03-11T17:26:50.113Z,99848.66
2023-03-11T17:29:20.755Z,99854.11
2023-03-11T17:31:51.607Z,99864.20
2023-03-11T17:34:21.428Z,99865.17
2023-03-11T17:36:52.135Z,99866.77
2023-03-11T17:39:22.819Z,99871.36
2023-03-11T17:41:53.545Z,99872.81
2023-03-11T17:44:24.335Z,99874.09
2023-03-11T17:46:55.128Z,99876.88
2023-03-11T17:49:26.235Z,99882.66
2023-03-11T17:51:55.323Z,99880.96
2023-03-11T17:54:26.008Z,99883.94
2023-03-11T17:56:57.299Z,99888.60
2023-03-11T17:59:27.978Z,99892.86
2023-03-11T18:02:00.460Z,99895.84
2023-03-11T18:04:31.304Z,99903.49
2023-03-11T18:07:02.014Z,99903.05
2023-03-11T18:09:32.841Z,99905.70
2023-03-11T18:12:04.345Z,99912.83
2023-03-11T18:14:35.808Z,99915.55
2023-03-11T18:17:06.692Z,99927.06
2023-03-11T18:19:37.773Z,99931.23
2023-03-11T18:22:08.516Z,99937.17
2023-03-11T18:24:39.183Z,99936.86
2023-03-11T18:27:10.019Z,99936.73
2023-03-11T18:29:41.014Z,99943.30
2023-03-11T18:32:11.944Z,99948.23
2023-03-11T18:34:42.602Z,99949.96
2023-03-11T18:37:13.222Z,99954.64
2023-03-11T18:39:43.808Z,99952.31
2023-03-11T18:42:14.740Z,99954.31
2023-03-11T18:44:45.450Z,99955.70
2023-03-11T18:47:16.418Z,99956.94
2023-03-11T18:49:47.355Z,99958.41
2023-03-11T18:52:18.020Z,99962.40
2023-03-11T18:54:48.676Z,99963.45
2023-03-11T18:57:19.435Z,99965.93
2023-03-11T18:59:48.929Z,99966.90
2023-03-11T19:02:19.642Z,99965.29
2023-03-11T19:04:50.479Z,99969.16
2023-03-11T19:07:21.325Z,99973.70
2023-03-11T19:09:51.970Z,99977.54
2023-03-11T19:12:22.661Z,99975.39
2023-03-11T19:14:53.340Z,99976.95
2023-03-11T19:17:24.889Z,99982.67
2023-03-11T19:19:56.209Z,99986.65
2023-03-11T19:22:27.042Z,99984.46
2023-03-11T19:24:57.676Z,99990.98
2023-03-11T19:27:28.324Z,99986.77
2023-03-11T19:29:59.474Z,99984.90
2023-03-11T19:32:30.183Z,99987.92
2023-03-11T19:35:00.793Z,99995.66
2023-03-11T19:37:33.039Z,99997.15
2023-03-11T19:40:03.986Z,99997.60
2023-03-11T19:42:36.398Z,99998.85
2023-03-11T19:45:09.813Z,100000.29
2023-03-11T19:47:40.856Z,100000.98
2023-03-11T19:50:12.656Z,100007.22
2023-03-11T19:52:43.350Z,100011.94
2023-03-11T19:55:14.509Z,100012.96
2023-03-11T19:57:45.303Z,100013.36
2023-03-11T20:00:16.802Z,100011.65
2023-03-11T20:02:47.549Z,100005.55
2023-03-11T20:05:18.356Z,100004.91
2023-03-11T20:07:49.176Z,100009.14
2023-03-11T20:10:20.524Z,100010.55
2023-03-11T20:13:01.706Z,100013.48
2023-03-11T20:15:33.706Z,100014.94
2023-03-11T20:18:02.902Z,100015.38
2023-03-11T20:20:37.164Z,100015.91
2023-03-11T20:23:07.958Z,100017.60
2023-03-11T20:25:41.084Z,100017.66
2023-03-11T20:28:11.970Z,100011.94
2023-03-11T20:30:42.676Z,100013.75
2023-03-11T20:33:13.392Z,100012.96
2023-03-11T20:35:44.084Z,100009.77
2023-03-11T20:38:14.948Z,100010.17
2023-03-11T20:40:55.144Z,100012.85
2023-03-11T20:43:25.963Z,100014.62
2023-03-11T20:45:57.555Z,100014.20
2023-03-11T20:48:28.819Z,100016.42
2023-03-11T20:51:02.162Z,100018.90
2023-03-11T20:53:33.358Z,100010.60
2023-03-11T20:56:09.609Z,100011.73
2023-03-11T20:58:40.820Z,100013.44
2023-03-11T21:01:16.774Z,100016.05
2023-03-11T21:03:50.085Z,100016.31
2023-03-11T21:06:23.220Z,100012.66
2023-03-11T21:08:54.971Z,100012.87
2023-03-11T21:11:26.631Z,100013.44
2023-03-11T21:13:57.326Z,100012.69
2023-03-11T21:16:28.548Z,100009.77
2023-03-11T21:18:59.330Z,100004.17
2023-03-11T21:21:30.058Z,100007.52
2023-03-11T21:24:00.896Z,100005.86
2023-03-11T21:26:31.737Z,100004.33
2023-03-11T21:29:02.925Z,100003.13
2023-03-11T21:31:34.404Z,100000.58
2023-03-11T21:34:05.200Z,100001.05
2023-03-11T21:36:36.090Z,100000.89
2023-03-11T21:39:07.071Z,100002.65
2023-03-11T21:41:37.744Z,99998.55
2023-03-11T21:44:08.642Z,99996.71
2023-03-11T21:46:39.665Z,99995.71
2023-03-11T21:49:10.443Z,99995.44
2023-03-11T21:51:41.198Z,99996.35
2023-03-11T21:54:11.872Z,99992.66
2023-03-11T21:56:42.727Z,99993.45
2023-03-11T21:59:13.422Z,99990.31
2023-03-11T22:01:44.175Z,99986.38
2023-03-11T22:04:15.160Z,99986.92
2023-03-11T22:06:45.891Z,99986.99
2023-03-11T22:09:16.685Z,99986.14
2023-03-11T22:11:48.617Z,99985.08
2023-03-11T22:14:19.395Z,99990.63
2023-03-11T22:16:50.504Z,99989.34
2023-03-11T22:19:19.816Z,99991.45
2023-03-11T22:21:50.623Z,99993.59
2023-03-11T22:24:21.498Z,99994.45
2023-03-11T22:26:52.180Z,99999.66
2023-03-11T22:29:22.879Z,100004.20
2023-03-11T22:31:53.700Z,99997.07
2023-03-11T22:34:24.402Z,99993.29
2023-03-11T22:36:55.007Z,99997.98
2023-03-11T22:39:25.721Z,99999.02
2023-03-11T22:41:56.368Z,100000.02
2023-03-11T22:44:27.209Z,100002.70
2023-03-11T22:46:57.883Z,100003.98
2023-03-11T22:49:28.653Z,99996.86
2023-03-11T22:51:59.418Z,99998.41
2023-03-11T22:54:30.161Z,99995.50
2023-03-11T22:57:00.773Z,99994.84
2023-03-11T22:59:31.484Z,99986.48
2023-03-11T23:02:02.214Z,99979.23
2023-03-11T23:04:32.892Z,99975.48
2023-03-11T23:07:03.503Z,99974.75
2023-03-11T23:09:34.236Z,99974.65
2023-03-11T23:12:07.666Z,99975.40
2023-03-11T23:14:45.029Z,99978.80
2023-03-11T23:17:15.942Z,99976.17
2023-03-11T23:19:46.621Z,99973.70
2023-03-11T23:22:17.244Z,99979.56
2023-03-11T23:24:48.014Z,99975.19
2023-03-11T23:27:18.650Z,99981.11
2023-03-11T23:29:49.325Z,99974.63
2023-03-11T23:32:20.019Z,99976.92
2023-03-11T23:34:50.730Z,99975.56
2023-03-11T23:37:21.435Z,99973.10
2023-03-11T23:39:52.240Z,99967.94
2023-03-11T23:42:26.239Z,99973.21
2023-03-11T23:44:57.552Z,99973.91
2023-03-11T23:47:26.818Z,99978.02
2023-03-11T23:49:57.545Z,99978.77
2023-03-11T23:52:28.193Z,99977.54
2023-03-11T23:54:58.826Z,99968.04
2023-03-11T23:57:29.480Z,99973.33
